sensor_id;sensor_type;location;lat;lon;timestamp;P1;durP1;ratioP1;P2;durP2;ratioP2
1957;SDS011;979;51.076;13.748;2022-11-15T00:56:12;58.07;;;44.00;;
1957;SDS011;979;51.076;13.748;2022-11-15T02:53:44;53.13;;;38.87;;
1957;SDS011;979;51.076;13.748;2022-11-15T03:40:54;41.40;;;34.43;;
1957;SDS011;979;51.076;13.748;2022-11-15T03:49:03;45.40;;;33.57;;
1957;SDS011;979;51.076;13.748;2022-11-15T03:52:55;46.03;;;36.77;;
1957;SDS011;979;51.076;13.748;2022-11-15T04:16:53;45.80;;;36.93;;
1957;SDS011;979;51.076;13.748;2022-11-15T04:30:00;40.20;;;34.67;;
1957;SDS011;979;51.076;13.748;2022-11-15T04:40:39;41.03;;;35.73;;
1957;SDS011;979;51.076;13.748;2022-11-15T04:52:33;43.60;;;34.33;;
1957;SDS011;979;51.076;13.748;2022-11-15T05:06:12;44.60;;;34.60;;
1957;SDS011;979;51.076;13.748;2022-11-15T05:15:59;44.43;;;34.90;;
1957;SDS011;979;51.076;13.748;2022-11-15T05:19:33;41.63;;;33.93;;
1957;SDS011;979;51.076;13.748;2022-11-15T05:23:07;42.60;;;34.63;;
1957;SDS011;979;51.076;13.748;2022-11-15T05:26:32;46.47;;;33.83;;
1957;SDS011;979;51.076;13.748;2022-11-15T05:29:40;40.90;;;36.27;;
1957;SDS011;979;51.076;13.748;2022-11-15T05:48:34;36.37;;;32.43;;
1957;SDS011;979;51.076;13.748;2022-11-15T05:54:23;44.70;;;34.90;;
1957;SDS011;979;51.076;13.748;2022-11-15T05:57:25;41.87;;;34.77;;
1957;SDS011;979;51.076;13.748;2022-11-15T06:20:35;51.13;;;37.20;;
1957;SDS011;979;51.076;13.748;2022-11-15T06:23:46;44.10;;;35.10;;
1957;SDS011;979;51.076;13.748;2022-11-15T07:33:34;37.97;;;33.70;;
1957;SDS011;979;51.076;13.748;2022-11-15T07:36:36;43.17;;;33.53;;
1957;SDS011;979;51.076;13.748;2022-11-15T07:39:53;43.23;;;35.00;;
1957;SDS011;979;51.076;13.748;2022-11-15T07:55:25;37.57;;;33.50;;
1957;SDS011;979;51.076;13.748;2022-11-15T07:58:41;39.13;;;33.43;;
1957;SDS011;979;51.076;13.748;2022-11-15T08:01:28;38.47;;;34.43;;
1957;SDS011;979;51.076;13.748;2022-11-15T08:04:35;36.70;;;32.73;;
1957;SDS011;979;51.076;13.748;2022-11-15T08:33:31;32.73;;;29.43;;
1957;SDS011;979;51.076;13.748;2022-11-15T08:36:23;35.20;;;31.53;;
1957;SDS011;979;51.076;13.748;2022-11-15T08:39:42;36.07;;;32.43;;
1957;SDS011;979;51.076;13.748;2022-11-15T08:42:54;34.90;;;31.67;;
1957;SDS011;979;51.076;13.748;2022-11-15T08:45:59;35.47;;;31.73;;
1957;SDS011;979;51.076;13.748;2022-11-15T09:00:57;35.70;;;32.00;;
1957;SDS011;979;51.076;13.748;2022-11-15T09:04:04;35.10;;;31.40;;
1957;SDS011;979;51.076;13.748;2022-11-15T09:07:09;35.43;;;32.13;;
1957;SDS011;979;51.076;13.748;2022-11-15T09:10:03;36.33;;;32.40;;
1957;SDS011;979;51.076;13.748;2022-11-15T09:12:56;35.90;;;32.23;;
1957;SDS011;979;51.076;13.748;2022-11-15T09:15:44;34.10;;;30.43;;
1957;SDS011;979;51.076;13.748;2022-11-15T09:18:32;35.27;;;31.67;;
1957;SDS011;979;51.076;13.748;2022-11-15T09:21:19;39.57;;;32.87;;
1957;SDS011;979;51.076;13.748;2022-11-15T09:24:07;41.70;;;32.80;;
1957;SDS011;979;51.076;13.748;2022-11-15T09:26:54;38.13;;;34.07;;
1957;SDS011;979;51.076;13.748;2022-11-15T09:29:41;34.07;;;30.37;;
1957;SDS011;979;51.076;13.748;2022-11-15T09:32:28;35.80;;;32.20;;
1957;SDS011;979;51.076;13.748;2022-11-15T09:35:24;34.27;;;31.00;;
1957;SDS011;979;51.076;13.748;2022-11-15T09:38:11;34.30;;;31.33;;
1957;SDS011;979;51.076;13.748;2022-11-15T09:41:07;36.40;;;32.70;;
1957;SDS011;979;51.076;13.748;2022-11-15T09:44:15;36.27;;;32.10;;
1957;SDS011;979;51.076;13.748;2022-11-15T09:50:38;37.77;;;34.17;;
1957;SDS011;979;51.076;13.748;2022-11-15T09:53:14;35.77;;;32.47;;
1957;SDS011;979;51.076;13.748;2022-11-15T09:56:13;36.23;;;32.50;;
1957;SDS011;979;51.076;13.748;2022-11-15T09:58:47;33.73;;;30.70;;
1957;SDS011;979;51.076;13.748;2022-11-15T10:01:29;33.27;;;29.90;;
1957;SDS011;979;51.076;13.748;2022-11-15T10:04:07;34.17;;;30.87;;
1957;SDS011;979;51.076;13.748;2022-11-15T10:06:40;33.60;;;30.47;;
1957;SDS011;979;51.076;13.748;2022-11-15T10:09:15;36.67;;;33.37;;
1957;SDS011;979;51.076;13.748;2022-11-15T10:11:49;33.53;;;30.53;;
1957;SDS011;979;51.076;13.748;2022-11-15T10:14:18;35.30;;;32.10;;
1957;SDS011;979;51.076;13.748;2022-11-15T10:16:56;34.60;;;31.50;;
1957;SDS011;979;51.076;13.748;2022-11-15T10:19:48;36.00;;;32.60;;
1957;SDS011;979;51.076;13.748;2022-11-15T10:22:35;33.83;;;30.33;;
1957;SDS011;979;51.076;13.748;2022-11-15T10:25:10;34.03;;;30.93;;
1957;SDS011;979;51.076;13.748;2022-11-15T10:27:54;33.67;;;30.53;;
1957;SDS011;979;51.076;13.748;2022-11-15T10:30:30;33.23;;;30.23;;
1957;SDS011;979;51.076;13.748;2022-11-15T10:33:09;32.73;;;29.77;;
1957;SDS011;979;51.076;13.748;2022-11-15T10:38:57;33.20;;;30.17;;
1957;SDS011;979;51.076;13.748;2022-11-15T10:41:29;33.73;;;30.37;;
1957;SDS011;979;51.076;13.748;2022-11-15T10:44:23;36.60;;;33.07;;
1957;SDS011;979;51.076;13.748;2022-11-15T10:47:20;34.33;;;31.27;;
1957;SDS011;979;51.076;13.748;2022-11-15T10:50:06;36.50;;;33.17;;
1957;SDS011;979;51.076;13.748;2022-11-15T10:52:58;33.77;;;30.50;;
1957;SDS011;979;51.076;13.748;2022-11-15T10:56:01;34.90;;;31.73;;
1957;SDS011;979;51.076;13.748;2022-11-15T10:58:37;35.40;;;32.30;;
1957;SDS011;979;51.076;13.748;2022-11-15T11:01:28;34.60;;;31.47;;
1957;SDS011;979;51.076;13.748;2022-11-15T11:03:59;34.10;;;30.80;;
1957;SDS011;979;51.076;13.748;2022-11-15T11:06:32;35.33;;;32.07;;
1957;SDS011;979;51.076;13.748;2022-11-15T11:09:21;32.80;;;29.30;;
1957;SDS011;979;51.076;13.748;2022-11-15T11:11:59;33.73;;;30.53;;
1957;SDS011;979;51.076;13.748;2022-11-15T11:14:37;32.70;;;29.60;;
1957;SDS011;979;51.076;13.748;2022-11-15T11:17:16;34.07;;;31.13;;
1957;SDS011;979;51.076;13.748;2022-11-15T11:20:05;32.97;;;30.17;;
1957;SDS011;979;51.076;13.748;2022-11-15T11:23:11;34.53;;;31.47;;
1957;SDS011;979;51.076;13.748;2022-11-15T11:25:56;32.07;;;29.27;;
1957;SDS011;979;51.076;13.748;2022-11-15T11:28:45;33.87;;;30.87;;
1957;SDS011;979;51.076;13.748;2022-11-15T11:31:32;34.43;;;31.13;;
1957;SDS011;979;51.076;13.748;2022-11-15T11:34:26;32.07;;;29.37;;
1957;SDS011;979;51.076;13.748;2022-11-15T11:37:14;32.40;;;29.47;;
1957;SDS011;979;51.076;13.748;2022-11-15T11:39:51;32.57;;;29.77;;
1957;SDS011;979;51.076;13.748;2022-11-15T11:42:36;31.50;;;29.07;;
1957;SDS011;979;51.076;13.748;2022-11-15T11:45:19;32.50;;;29.77;;
1957;SDS011;979;51.076;13.748;2022-11-15T11:48:13;30.73;;;28.43;;
1957;SDS011;979;51.076;13.748;2022-11-15T11:51:18;33.47;;;30.87;;
1957;SDS011;979;51.076;13.748;2022-11-15T11:53:52;32.40;;;30.17;;
1957;SDS011;979;51.076;13.748;2022-11-15T11:56:26;32.10;;;29.60;;
1957;SDS011;979;51.076;13.748;2022-11-15T11:59:00;32.10;;;29.70;;
1957;SDS011;979;51.076;13.748;2022-11-15T12:01:37;33.23;;;30.73;;
1957;SDS011;979;51.076;13.748;2022-11-15T12:04:11;32.07;;;29.73;;
1957;SDS011;979;51.076;13.748;2022-11-15T12:06:58;32.07;;;29.67;;
1957;SDS011;979;51.076;13.748;2022-11-15T12:09:44;33.23;;;30.77;;
1957;SDS011;979;51.076;13.748;2022-11-15T12:12:23;33.60;;;31.10;;
1957;SDS011;979;51.076;13.748;2022-11-15T12:15:10;32.70;;;30.27;;
1957;SDS011;979;51.076;13.748;2022-11-15T12:18:07;32.27;;;29.87;;
1957;SDS011;979;51.076;13.748;2022-11-15T12:20:54;32.03;;;29.83;;
1957;SDS011;979;51.076;13.748;2022-11-15T12:23:29;35.30;;;32.70;;
1957;SDS011;979;51.076;13.748;2022-11-15T12:26:02;33.63;;;31.27;;
1957;SDS011;979;51.076;13.748;2022-11-15T12:28:35;33.77;;;31.40;;
1957;SDS011;979;51.076;13.748;2022-11-15T12:31:30;32.63;;;30.47;;
1957;SDS011;979;51.076;13.748;2022-11-15T12:34:15;33.63;;;31.23;;
1957;SDS011;979;51.076;13.748;2022-11-15T12:37:02;32.60;;;30.33;;
1957;SDS011;979;51.076;13.748;2022-11-15T12:40:05;31.87;;;29.67;;
1957;SDS011;979;51.076;13.748;2022-11-15T12:45:56;32.60;;;30.40;;
1957;SDS011;979;51.076;13.748;2022-11-15T12:48:48;32.67;;;30.47;;
1957;SDS011;979;51.076;13.748;2022-11-15T12:51:21;33.50;;;31.10;;
1957;SDS011;979;51.076;13.748;2022-11-15T12:57:34;33.13;;;30.87;;
1957;SDS011;979;51.076;13.748;2022-11-15T13:05:56;32.57;;;30.47;;
1957;SDS011;979;51.076;13.748;2022-11-15T13:08:47;32.30;;;30.20;;
1957;SDS011;979;51.076;13.748;2022-11-15T13:17:25;33.23;;;30.93;;
1957;SDS011;979;51.076;13.748;2022-11-15T13:20:14;32.90;;;30.70;;
1957;SDS011;979;51.076;13.748;2022-11-15T13:22:59;33.57;;;31.13;;
1957;SDS011;979;51.076;13.748;2022-11-15T13:25:55;34.13;;;31.67;;
1957;SDS011;979;51.076;13.748;2022-11-15T13:28:34;34.73;;;32.00;;
1957;SDS011;979;51.076;13.748;2022-11-15T13:31:23;34.77;;;31.67;;
1957;SDS011;979;51.076;13.748;2022-11-15T13:33:55;32.70;;;30.30;;
1957;SDS011;979;51.076;13.748;2022-11-15T13:36:29;32.97;;;30.40;;
1957;SDS011;979;51.076;13.748;2022-11-15T13:39:01;33.50;;;30.90;;
1957;SDS011;979;51.076;13.748;2022-11-15T14:46:01;35.27;;;31.97;;
1957;SDS011;979;51.076;13.748;2022-11-15T14:48:29;34.03;;;31.10;;
1957;SDS011;979;51.076;13.748;2022-11-15T14:51:00;36.13;;;32.47;;
1957;SDS011;979;51.076;13.748;2022-11-15T14:53:40;36.10;;;32.83;;
1957;SDS011;979;51.076;13.748;2022-11-15T14:56:09;36.30;;;33.00;;
1957;SDS011;979;51.076;13.748;2022-11-15T14:58:38;35.03;;;32.07;;
1957;SDS011;979;51.076;13.748;2022-11-15T15:01:10;35.07;;;31.87;;
1957;SDS011;979;51.076;13.748;2022-11-15T15:03:41;36.37;;;33.07;;
1957;SDS011;979;51.076;13.748;2022-11-15T15:06:10;37.53;;;33.83;;
1957;SDS011;979;51.076;13.748;2022-11-15T15:08:46;35.50;;;32.00;;
1957;SDS011;979;51.076;13.748;2022-11-15T15:11:20;35.20;;;31.77;;
1957;SDS011;979;51.076;13.748;2022-11-15T15:13:50;33.70;;;30.77;;
1957;SDS011;979;51.076;13.748;2022-11-15T15:16:20;33.43;;;30.17;;
1957;SDS011;979;51.076;13.748;2022-11-15T15:18:49;35.33;;;32.20;;
1957;SDS011;979;51.076;13.748;2022-11-15T15:21:19;32.00;;;29.20;;
1957;SDS011;979;51.076;13.748;2022-11-15T15:23:49;35.33;;;31.93;;
1957;SDS011;979;51.076;13.748;2022-11-15T15:26:17;35.87;;;32.23;;
1957;SDS011;979;51.076;13.748;2022-11-15T15:28:45;30.07;;;27.40;;
1957;SDS011;979;51.076;13.748;2022-11-15T15:31:20;34.40;;;31.17;;
1957;SDS011;979;51.076;13.748;2022-11-15T15:33:48;34.07;;;30.47;;
1957;SDS011;979;51.076;13.748;2022-11-15T15:36:17;34.70;;;31.47;;
1957;SDS011;979;51.076;13.748;2022-11-15T15:38:46;33.20;;;30.30;;
1957;SDS011;979;51.076;13.748;2022-11-15T15:41:15;34.83;;;31.27;;
1957;SDS011;979;51.076;13.748;2022-11-15T15:43:44;35.47;;;31.97;;
1957;SDS011;979;51.076;13.748;2022-11-15T15:46:14;35.70;;;32.17;;
1957;SDS011;979;51.076;13.748;2022-11-15T15:48:46;34.87;;;31.30;;
1957;SDS011;979;51.076;13.748;2022-11-15T15:51:15;34.80;;;31.33;;
1957;SDS011;979;51.076;13.748;2022-11-15T15:53:46;33.97;;;30.80;;
1957;SDS011;979;51.076;13.748;2022-11-15T15:56:15;34.90;;;31.27;;
1957;SDS011;979;51.076;13.748;2022-11-15T15:58:43;30.77;;;28.00;;
1957;SDS011;979;51.076;13.748;2022-11-15T16:01:11;33.13;;;29.70;;
1957;SDS011;979;51.076;13.748;2022-11-15T16:03:40;32.37;;;28.97;;
1957;SDS011;979;51.076;13.748;2022-11-15T16:12:27;31.13;;;28.27;;
1957;SDS011;979;51.076;13.748;2022-11-15T16:14:56;31.57;;;28.50;;
1957;SDS011;979;51.076;13.748;2022-11-15T16:17:27;34.20;;;30.83;;
1957;SDS011;979;51.076;13.748;2022-11-15T16:20:00;33.90;;;30.30;;
1957;SDS011;979;51.076;13.748;2022-11-15T16:22:33;33.57;;;30.40;;
1957;SDS011;979;51.076;13.748;2022-11-15T16:25:01;35.73;;;31.90;;
1957;SDS011;979;51.076;13.748;2022-11-15T16:27:37;33.60;;;30.40;;
1957;SDS011;979;51.076;13.748;2022-11-15T16:30:14;33.40;;;29.97;;
1957;SDS011;979;51.076;13.748;2022-11-15T16:32:48;34.97;;;31.27;;
1957;SDS011;979;51.076;13.748;2022-11-15T16:35:35;33.03;;;29.83;;
1957;SDS011;979;51.076;13.748;2022-11-15T16:38:18;34.10;;;30.60;;
1957;SDS011;979;51.076;13.748;2022-11-15T16:41:05;33.10;;;29.70;;
1957;SDS011;979;51.076;13.748;2022-11-15T16:43:36;34.43;;;31.13;;
1957;SDS011;979;51.076;13.748;2022-11-15T16:46:06;35.93;;;32.03;;
1957;SDS011;979;51.076;13.748;2022-11-15T16:48:40;34.63;;;31.23;;
1957;SDS011;979;51.076;13.748;2022-11-15T16:51:12;16.00;;;15.60;;
1957;SDS011;979;51.076;13.748;2022-11-15T16:53:44;15.57;;;15.13;;
1957;SDS011;979;51.076;13.748;2022-11-15T16:56:19;13.70;;;13.40;;
1957;SDS011;979;51.076;13.748;2022-11-15T16:58:50;18.57;;;18.07;;
1957;SDS011;979;51.076;13.748;2022-11-15T17:01:21;14.40;;;14.10;;
1957;SDS011;979;51.076;13.748;2022-11-15T17:03:54;14.40;;;14.10;;
1957;SDS011;979;51.076;13.748;2022-11-15T17:14:05;14.00;;;13.70;;
1957;SDS011;979;51.076;13.748;2022-11-15T17:16:44;13.60;;;13.30;;
1957;SDS011;979;51.076;13.748;2022-11-15T17:19:14;13.80;;;13.50;;
1957;SDS011;979;51.076;13.748;2022-11-15T17:21:46;13.50;;;13.20;;
1957;SDS011;979;51.076;13.748;2022-11-15T17:24:28;14.60;;;14.30;;
1957;SDS011;979;51.076;13.748;2022-11-15T17:53:20;15.40;;;15.10;;
1957;SDS011;979;51.076;13.748;2022-11-15T17:56:11;15.07;;;14.77;;
1957;SDS011;979;51.076;13.748;2022-11-15T17:59:50;15.20;;;14.90;;
1957;SDS011;979;51.076;13.748;2022-11-15T18:06:30;14.57;;;14.27;;
1957;SDS011;979;51.076;13.748;2022-11-15T18:09:57;14.90;;;14.60;;
1957;SDS011;979;51.076;13.748;2022-11-15T18:12:27;14.50;;;14.20;;
1957;SDS011;979;51.076;13.748;2022-11-15T18:14:56;15.37;;;15.03;;
1957;SDS011;979;51.076;13.748;2022-11-15T18:17:45;15.13;;;14.83;;
1957;SDS011;979;51.076;13.748;2022-11-15T18:20:45;14.03;;;13.73;;
1957;SDS011;979;51.076;13.748;2022-11-15T18:23:20;14.73;;;14.43;;
1957;SDS011;979;51.076;13.748;2022-11-15T18:26:18;14.33;;;14.03;;
1957;SDS011;979;51.076;13.748;2022-11-15T18:28:55;16.17;;;15.77;;
1957;SDS011;979;51.076;13.748;2022-11-15T20:33:27;14.77;;;14.40;;
1957;SDS011;979;51.076;13.748;2022-11-15T20:36:04;15.93;;;15.57;;
1957;SDS011;979;51.076;13.748;2022-11-15T20:38:37;14.90;;;14.60;;
1957;SDS011;979;51.076;13.748;2022-11-15T20:41:06;15.37;;;15.03;;
1957;SDS011;979;51.076;13.748;2022-11-15T22:15:54;25.17;;;22.97;;
1957;SDS011;979;51.076;13.748;2022-11-15T22:18:24;24.27;;;22.17;;
1957;SDS011;979;51.076;13.748;2022-11-15T22:20:53;23.40;;;21.67;;
1957;SDS011;979;51.076;13.748;2022-11-15T22:23:26;26.17;;;24.20;;
1957;SDS011;979;51.076;13.748;2022-11-15T22:25:56;26.00;;;24.10;;
1957;SDS011;979;51.076;13.748;2022-11-15T22:28:25;24.57;;;22.67;;
1957;SDS011;979;51.076;13.748;2022-11-15T22:30:57;24.60;;;22.47;;
1957;SDS011;979;51.076;13.748;2022-11-15T22:33:28;23.00;;;21.33;;
1957;SDS011;979;51.076;13.748;2022-11-15T22:35:58;23.80;;;22.07;;
1957;SDS011;979;51.076;13.748;2022-11-15T22:38:27;24.23;;;22.50;;
1957;SDS011;979;51.076;13.748;2022-11-15T22:40:55;24.70;;;22.73;;
1957;SDS011;979;51.076;13.748;2022-11-15T22:43:27;24.00;;;22.20;;
1957;SDS011;979;51.076;13.748;2022-11-15T22:45:58;24.07;;;22.27;;
1957;SDS011;979;51.076;13.748;2022-11-15T22:48:28;25.00;;;23.00;;
1957;SDS011;979;51.076;13.748;2022-11-15T22:50:58;23.93;;;22.23;;
1957;SDS011;979;51.076;13.748;2022-11-15T22:53:27;25.87;;;23.93;;
1957;SDS011;979;51.076;13.748;2022-11-15T22:55:56;24.20;;;22.40;;
1957;SDS011;979;51.076;13.748;2022-11-15T22:58:29;23.80;;;21.90;;
1957;SDS011;979;51.076;13.748;2022-11-15T23:01:03;25.23;;;23.33;;
1957;SDS011;979;51.076;13.748;2022-11-15T23:03:34;24.50;;;22.60;;
1957;SDS011;979;51.076;13.748;2022-11-15T23:06:03;26.53;;;22.30;;
1957;SDS011;979;51.076;13.748;2022-11-15T23:08:36;22.93;;;21.23;;
1957;SDS011;979;51.076;13.748;2022-11-15T23:11:05;24.00;;;21.50;;
1957;SDS011;979;51.076;13.748;2022-11-15T23:13:50;23.30;;;21.60;;
1957;SDS011;979;51.076;13.748;2022-11-15T23:16:21;23.37;;;21.77;;
1957;SDS011;979;51.076;13.748;2022-11-15T23:18:58;22.17;;;20.70;;
1957;SDS011;979;51.076;13.748;2022-11-15T23:21:28;24.37;;;22.27;;
1957;SDS011;979;51.076;13.748;2022-11-15T23:24:15;22.77;;;21.00;;
1957;SDS011;979;51.076;13.748;2022-11-15T23:26:45;22.50;;;20.93;;
1957;SDS011;979;51.076;13.748;2022-11-15T23:29:15;22.20;;;20.60;;
1957;SDS011;979;51.076;13.748;2022-11-15T23:31:47;23.67;;;21.83;;
1957;SDS011;979;51.076;13.748;2022-11-15T23:34:47;22.17;;;20.37;;
1957;SDS011;979;51.076;13.748;2022-11-15T23:37:16;23.57;;;21.50;;
1957;SDS011;979;51.076;13.748;2022-11-15T23:39:57;22.50;;;20.90;;
1957;SDS011;979;51.076;13.748;2022-11-15T23:42:26;20.63;;;19.23;;
1957;SDS011;979;51.076;13.748;2022-11-15T23:44:54;22.60;;;20.70;;
1957;SDS011;979;51.076;13.748;2022-11-15T23:47:27;24.50;;;22.40;;
1957;SDS011;979;51.076;13.748;2022-11-15T23:49:55;22.63;;;20.90;;
1957;SDS011;979;51.076;13.748;2022-11-15T23:52:24;21.63;;;19.97;;
1957;SDS011;979;51.076;13.748;2022-11-15T23:54:52;20.87;;;19.57;;
1957;SDS011;979;51.076;13.748;2022-11-15T23:57:20;24.40;;;22.40;;
1957;SDS011;979;51.076;13.748;2022-11-15T23:59:49;23.70;;;21.73;;
